Tire Hill, Pennsylvania
Current Conditions -  °F | °C
As of 1:54 PM on Monday 20 Oct 2014 (Local Time) from KJST Reporting Station
Overcast Overcast  
Wind Chill: 51°   Ceiling: 9500
Heat Index: 51°   Visibility: 10mi
Dew Point: 36°   Wind: 10mph
Humidity: 56%   Direction: 220°SW
Pressure: 29.93"   Gusts: NA
Location:  40.27°N, 78.92°W
Report Text: KJST 201754Z AUTO 22009KT 10SM OVC095 11/02 A2993 RMK AO2 SLP143 T01060022 10111 20050 56025
Loading
Personal Weather Stations






























Interactive Weather Map
Tropical Storm Tracking
New forecast layout! Learn more

10-Day Weather Forecast

Advertisements
Track Severe Weather on mobile